createdAt,value
2022-10-17T00:00:48.931Z,93.30
2022-10-17T00:03:17.939Z,93.00
2022-10-17T00:05:47.244Z,93.61
2022-10-17T00:08:16.310Z,94.90
2022-10-17T00:10:44.244Z,94.75
2022-10-17T00:13:12.455Z,94.88
2022-10-17T00:15:44.356Z,94.42
2022-10-17T00:18:11.929Z,97.66
2022-10-17T00:20:40.832Z,94.22
2022-10-17T00:23:08.323Z,94.77
2022-10-17T00:25:36.916Z,92.00
2022-10-17T00:28:04.667Z,91.31
2022-10-17T00:30:32.775Z,95.04
2022-10-17T00:33:00.278Z,95.55
2022-10-17T00:35:27.899Z,93.55
2022-10-17T00:37:56.744Z,90.75
2022-10-17T00:40:24.279Z,91.39
2022-10-17T00:42:53.080Z,100.00
2022-10-17T00:45:24.753Z,95.07
2022-10-17T00:47:55.968Z,97.35
2022-10-17T00:50:23.653Z,96.43
2022-10-17T00:52:51.564Z,93.67
2022-10-17T00:55:23.679Z,94.38
2022-10-17T00:57:51.932Z,97.69
2022-10-17T01:00:20.407Z,95.31
2022-10-17T01:02:48.362Z,98.15
2022-10-17T01:05:17.336Z,96.18
2022-10-17T01:07:45.740Z,94.74
2022-10-17T01:10:14.173Z,97.57
2022-10-17T01:12:53.447Z,95.01
2022-10-17T01:15:27.620Z,92.70
2022-10-17T01:18:05.039Z,94.34
2022-10-17T01:21:09.884Z,95.66
2022-10-17T01:24:15.001Z,95.18
2022-10-17T01:27:12.831Z,95.39
2022-10-17T01:29:58.886Z,95.24
2022-10-17T01:32:32.570Z,92.81
2022-10-17T01:35:03.555Z,92.45
2022-10-17T01:37:34.417Z,99.02
2022-10-17T01:40:05.680Z,97.39
2022-10-17T01:42:36.836Z,99.04
2022-10-17T01:45:08.220Z,96.58
2022-10-17T01:47:37.097Z,95.51
2022-10-17T01:50:08.634Z,94.08
2022-10-17T01:52:39.674Z,93.67
2022-10-17T01:55:09.293Z,93.21
2022-10-17T01:57:40.104Z,93.17
2022-10-17T02:00:11.034Z,94.34
2022-10-17T02:02:40.439Z,94.57
2022-10-17T02:05:09.054Z,94.14
2022-10-17T02:07:36.584Z,98.20
2022-10-17T02:10:05.951Z,99.76
2022-10-17T02:12:37.983Z,100.00
2022-10-17T02:15:22.542Z,98.80
2022-10-17T02:17:59.292Z,99.47
2022-10-17T02:20:32.400Z,98.10
2022-10-17T02:23:04.399Z,100.00
2022-10-17T02:25:37.226Z,100.00
2022-10-17T02:28:15.467Z,100.00
2022-10-17T02:30:45.298Z,99.52
2022-10-17T02:33:18.040Z,100.00
2022-10-17T02:35:48.561Z,100.00
2022-10-17T02:38:16.349Z,99.25
2022-10-17T02:40:44.014Z,100.00
2022-10-17T02:43:11.833Z,100.00
2022-10-17T02:45:39.991Z,100.00
2022-10-17T02:48:10.712Z,99.93
2022-10-17T02:50:46.404Z,100.00
2022-10-17T02:53:16.640Z,100.00
2022-10-17T02:55:48.871Z,100.00
2022-10-17T02:58:20.560Z,100.00
2022-10-17T03:00:48.291Z,100.00
2022-10-17T03:03:23.979Z,100.00
2022-10-17T03:05:53.323Z,100.00
2022-10-17T03:08:21.087Z,100.00
2022-10-17T03:10:49.049Z,100.00
2022-10-17T03:13:16.576Z,100.00
2022-10-17T03:15:44.294Z,100.00
2022-10-17T03:18:12.008Z,100.00
2022-10-17T03:20:39.534Z,100.00
2022-10-17T03:23:08.575Z,100.00
2022-10-17T03:25:38.327Z,100.00
2022-10-17T03:28:06.180Z,100.00
2022-10-17T03:30:34.444Z,100.00
2022-10-17T03:33:02.094Z,100.00
2022-10-17T03:35:29.574Z,100.00
2022-10-17T03:37:57.271Z,100.00
2022-10-17T03:40:26.260Z,100.00
2022-10-17T03:42:53.737Z,100.00
2022-10-17T03:45:21.230Z,100.00
2022-10-17T03:47:48.744Z,100.00
2022-10-17T03:50:16.447Z,100.00
2022-10-17T03:52:47.503Z,100.00
2022-10-17T03:55:15.190Z,100.00
2022-10-17T03:57:46.499Z,100.00
2022-10-17T04:00:14.633Z,100.00
2022-10-17T04:02:42.411Z,100.00
2022-10-17T04:05:10.320Z,100.00
2022-10-17T04:07:37.845Z,100.00
2022-10-17T04:10:06.119Z,100.00
2022-10-17T04:12:33.680Z,100.00
2022-10-17T04:15:02.538Z,100.00
2022-10-17T04:17:35.817Z,100.00
2022-10-17T04:20:06.511Z,100.00
2022-10-17T04:22:34.033Z,100.00
2022-10-17T04:25:01.378Z,100.00
2022-10-17T04:27:28.718Z,100.00
2022-10-17T04:29:56.063Z,100.00
2022-10-17T04:32:25.789Z,100.00
2022-10-17T04:34:53.267Z,100.00
2022-10-17T04:37:21.428Z,100.00
2022-10-17T04:39:49.017Z,100.00
2022-10-17T04:42:16.394Z,100.00
2022-10-17T04:44:43.813Z,100.00
2022-10-17T04:47:11.303Z,100.00
2022-10-17T04:52:07.328Z,100.00
2022-10-17T04:54:34.700Z,100.00
2022-10-17T04:57:02.147Z,100.00
2022-10-17T04:59:29.667Z,100.00
2022-10-17T05:01:57.126Z,100.00
2022-10-17T05:04:25.295Z,100.00
2022-10-17T05:06:54.110Z,100.00
2022-10-17T05:09:21.596Z,100.00
2022-10-17T05:11:49.009Z,100.00
2022-10-17T05:14:16.674Z,100.00
2022-10-17T05:16:44.113Z,100.00
2022-10-17T05:19:11.974Z,100.00
2022-10-17T05:21:39.310Z,100.00
2022-10-17T05:24:08.475Z,100.00
2022-10-17T05:26:35.867Z,100.00
2022-10-17T05:29:04.267Z,100.00
2022-10-17T05:31:31.901Z,100.00
2022-10-17T05:34:01.344Z,100.00
2022-10-17T05:36:28.989Z,100.00
2022-10-17T05:38:56.421Z,100.00
2022-10-17T05:41:25.100Z,100.00
2022-10-17T05:43:52.474Z,100.00
2022-10-17T05:46:19.911Z,100.00
2022-10-17T05:48:47.489Z,100.00
2022-10-17T05:51:14.894Z,100.00
2022-10-17T05:53:42.516Z,100.00
2022-10-17T05:56:10.489Z,100.00
2022-10-17T05:58:49.812Z,100.00
2022-10-17T06:01:18.411Z,100.00
2022-10-17T06:03:45.817Z,100.00
2022-10-17T06:06:14.576Z,100.00
2022-10-17T06:08:41.945Z,100.00
2022-10-17T06:11:10.488Z,100.00
2022-10-17T06:13:39.608Z,100.00
2022-10-17T06:16:07.377Z,100.00
2022-10-17T06:18:34.910Z,100.00
2022-10-17T06:21:05.939Z,100.00
2022-10-17T06:23:33.457Z,100.00
2022-10-17T06:26:00.918Z,100.00
2022-10-17T06:28:28.362Z,99.71
2022-10-17T06:30:57.117Z,100.00
2022-10-17T06:33:24.835Z,98.77
2022-10-17T06:35:52.756Z,99.02
2022-10-17T06:38:20.312Z,98.89
2022-10-17T06:40:47.739Z,96.39
2022-10-17T06:43:15.132Z,97.31
2022-10-17T06:45:42.534Z,97.87
2022-10-17T06:48:11.280Z,98.83
2022-10-17T06:50:38.619Z,98.99
2022-10-17T06:53:06.192Z,100.00
2022-10-17T06:55:33.768Z,99.78
2022-10-17T06:58:01.230Z,97.52
2022-10-17T07:00:28.662Z,98.56
2022-10-17T07:02:55.998Z,96.45
2022-10-17T07:05:24.733Z,98.38
2022-10-17T07:07:52.162Z,95.06
2022-10-17T07:10:19.622Z,97.89
2022-10-17T07:12:46.995Z,98.00
2022-10-17T07:15:14.383Z,98.06
2022-10-17T07:17:41.710Z,100.00
2022-10-17T07:20:09.846Z,97.91
2022-10-17T07:22:38.546Z,100.00
2022-10-17T07:25:06.403Z,98.65
2022-10-17T07:27:33.907Z,97.02
2022-10-17T07:30:01.390Z,99.79
2022-10-17T07:32:28.779Z,100.00
2022-10-17T07:34:56.108Z,99.32
2022-10-17T07:37:23.554Z,96.58
2022-10-17T07:39:52.377Z,93.16
2022-10-17T07:42:19.740Z,97.92
2022-10-17T07:44:47.468Z,94.87
2022-10-17T07:47:14.866Z,91.02
2022-10-17T07:49:42.436Z,90.61
2022-10-17T07:52:10.309Z,92.00
2022-10-17T07:54:37.642Z,89.93
2022-10-17T07:57:06.416Z,87.50
2022-10-17T07:59:34.102Z,89.32
2022-10-17T08:02:01.591Z,89.21
2022-10-17T08:04:29.106Z,87.22
2022-10-17T08:07:05.398Z,84.67
2022-10-17T08:09:39.288Z,85.02
2022-10-17T08:12:08.281Z,85.80
2022-10-17T08:14:35.666Z,83.46
2022-10-17T08:17:04.551Z,83.81
2022-10-17T08:19:32.017Z,84.30
2022-10-17T08:21:59.411Z,82.24
2022-10-17T08:24:26.932Z,83.21
2022-10-17T08:26:56.687Z,78.03
2022-10-17T08:29:25.460Z,77.16
2022-10-17T08:31:58.514Z,75.75
2022-10-17T08:34:29.128Z,78.46
2022-10-17T08:36:56.682Z,77.33
2022-10-17T08:39:24.168Z,82.51
2022-10-17T08:41:55.207Z,79.20
2022-10-17T08:44:26.611Z,82.24
2022-10-17T08:46:54.868Z,83.29
2022-10-17T08:49:24.227Z,88.31
2022-10-17T08:51:52.714Z,83.67
2022-10-17T08:54:21.439Z,82.30
2022-10-17T08:56:50.344Z,87.45
2022-10-17T08:59:19.190Z,83.58
2022-10-17T09:01:49.646Z,83.75
2022-10-17T09:04:33.132Z,87.95
2022-10-17T09:07:02.197Z,89.83
2022-10-17T09:09:33.733Z,90.89
2022-10-17T09:12:04.670Z,93.62
2022-10-17T09:14:47.152Z,87.17
2022-10-17T09:17:19.952Z,84.84
2022-10-17T09:19:50.106Z,90.15
2022-10-17T09:22:18.302Z,95.89
2022-10-17T09:24:46.704Z,96.73
2022-10-17T09:27:23.274Z,95.89
2022-10-17T09:29:51.727Z,94.82
2022-10-17T09:32:21.852Z,98.14
2022-10-17T09:34:49.751Z,96.20
2022-10-17T09:37:17.547Z,92.96
2022-10-17T09:39:45.100Z,95.33
2022-10-17T09:42:13.508Z,100.00
2022-10-17T09:44:41.663Z,96.53
2022-10-17T09:47:13.434Z,95.70
2022-10-17T09:49:42.732Z,94.67
2022-10-17T09:52:12.054Z,94.91
2022-10-17T09:54:42.536Z,98.99
2022-10-17T09:57:10.710Z,100.00
2022-10-17T09:59:39.060Z,100.00
2022-10-17T10:02:08.933Z,100.00
2022-10-17T10:04:59.763Z,100.00
2022-10-17T10:07:29.140Z,100.00
2022-10-17T10:09:56.932Z,100.00
2022-10-17T10:12:25.091Z,100.00
2022-10-17T10:14:54.751Z,100.00
2022-10-17T10:17:30.170Z,100.00
2022-10-17T10:19:57.719Z,100.00
2022-10-17T10:22:26.753Z,100.00
2022-10-17T10:25:12.361Z,100.00
2022-10-17T10:27:40.178Z,100.00
2022-10-17T10:30:07.855Z,100.00
2022-10-17T10:32:36.098Z,100.00
2022-10-17T10:35:04.567Z,100.00
2022-10-17T10:37:34.943Z,100.00
2022-10-17T10:40:02.824Z,100.00
2022-10-17T10:42:31.143Z,100.00
2022-10-17T10:44:59.549Z,100.00
2022-10-17T10:47:28.439Z,100.00
2022-10-17T10:50:08.504Z,100.00
2022-10-17T10:52:38.873Z,100.00
2022-10-17T10:55:11.260Z,100.00
2022-10-17T10:57:38.625Z,100.00
2022-10-17T11:00:07.516Z,100.00
2022-10-17T11:02:36.654Z,100.00
2022-10-17T11:05:05.220Z,100.00
2022-10-17T11:07:33.893Z,100.00
2022-10-17T11:10:04.739Z,100.00
2022-10-17T11:12:33.479Z,100.00
2022-10-17T11:15:03.386Z,100.00
2022-10-17T11:17:33.368Z,100.00
2022-10-17T11:20:04.160Z,100.00
2022-10-17T11:22:32.732Z,100.00
2022-10-17T11:25:00.746Z,100.00
2022-10-17T11:27:30.320Z,100.00
2022-10-17T11:29:58.054Z,100.00
2022-10-17T11:32:27.800Z,100.00
2022-10-17T11:34:55.783Z,100.00
2022-10-17T11:37:24.144Z,100.00
2022-10-17T11:39:52.477Z,100.00
2022-10-17T11:42:20.970Z,100.00
2022-10-17T11:44:49.992Z,100.00
2022-10-17T11:47:21.012Z,100.00
2022-10-17T11:49:50.964Z,100.00
2022-10-17T11:52:43.882Z,100.00
2022-10-17T11:55:12.232Z,100.00
2022-10-17T11:57:43.255Z,100.00
2022-10-17T12:00:21.445Z,100.00
2022-10-17T12:02:51.137Z,100.00
2022-10-17T12:05:20.797Z,100.00
2022-10-17T12:07:49.229Z,100.00
2022-10-17T12:10:23.263Z,100.00
2022-10-17T12:12:50.706Z,100.00
2022-10-17T12:15:31.710Z,100.00
2022-10-17T12:18:01.507Z,100.00
2022-10-17T12:20:32.901Z,100.00
2022-10-17T12:23:02.535Z,100.00
2022-10-17T12:25:32.076Z,100.00
2022-10-17T12:28:17.363Z,100.00
2022-10-17T12:30:51.496Z,100.00
2022-10-17T12:33:22.565Z,100.00
2022-10-17T12:35:50.955Z,100.00
2022-10-17T12:38:28.304Z,100.00
2022-10-17T12:40:57.056Z,100.00
2022-10-17T12:43:57.618Z,100.00
2022-10-17T12:46:54.993Z,100.00
2022-10-17T12:49:25.402Z,100.00
2022-10-17T12:52:06.471Z,100.00
2022-10-17T12:54:46.995Z,100.00
2022-10-17T12:57:21.719Z,100.00
2022-10-17T12:59:49.147Z,100.00
2022-10-17T13:02:18.337Z,100.00
2022-10-17T13:04:47.070Z,100.00
2022-10-17T13:07:17.191Z,100.00
2022-10-17T13:09:44.721Z,100.00
2022-10-17T13:12:13.930Z,100.00
2022-10-17T13:14:41.595Z,100.00
2022-10-17T13:17:21.979Z,100.00
2022-10-17T13:19:50.736Z,100.00
2022-10-17T13:22:18.647Z,100.00
2022-10-17T13:24:46.203Z,100.00
2022-10-17T13:27:24.139Z,100.00
2022-10-17T13:29:51.519Z,100.00
2022-10-17T13:32:18.874Z,100.00
2022-10-17T13:34:46.217Z,100.00
2022-10-17T13:37:15.525Z,100.00
2022-10-17T13:39:55.343Z,100.00
2022-10-17T13:42:24.840Z,100.00
2022-10-17T13:44:52.576Z,100.00
2022-10-17T13:47:23.278Z,100.00
2022-10-17T13:49:55.036Z,100.00
2022-10-17T13:52:24.759Z,100.00
2022-10-17T13:54:53.519Z,100.00
2022-10-17T13:57:21.865Z,100.00
2022-10-17T13:59:50.553Z,100.00
2022-10-17T14:02:18.448Z,100.00
2022-10-17T14:05:15.287Z,100.00
2022-10-17T14:07:58.098Z,100.00
2022-10-17T14:10:24.549Z,100.00
2022-10-17T14:12:51.997Z,100.00
2022-10-17T14:15:19.422Z,100.00
2022-10-17T14:17:46.775Z,100.00
2022-10-17T14:23:26.918Z,100.00
2022-10-17T14:26:04.564Z,100.00
2022-10-17T14:28:31.975Z,100.00
2022-10-17T14:31:09.850Z,100.00
2022-10-17T14:33:39.935Z,100.00
2022-10-17T14:36:10.216Z,100.00
2022-10-17T14:38:38.922Z,100.00
2022-10-17T14:41:40.891Z,100.00
2022-10-17T14:43:55.558Z,100.00
2022-10-17T14:46:22.892Z,100.00
2022-10-17T14:48:53.195Z,100.00
2022-10-17T14:51:20.545Z,100.00
2022-10-17T14:54:05.293Z,100.00
2022-10-17T14:56:37.704Z,100.00
2022-10-17T14:59:07.553Z,100.00
2022-10-17T15:01:38.529Z,100.00
2022-10-17T15:04:06.205Z,100.00
2022-10-17T15:06:34.471Z,100.00
2022-10-17T15:09:04.422Z,100.00
2022-10-17T15:11:33.078Z,100.00
2022-10-17T15:14:02.796Z,100.00
2022-10-17T15:16:31.783Z,100.00
2022-10-17T15:18:59.147Z,100.00
2022-10-17T15:21:38.464Z,100.00
2022-10-17T15:24:10.695Z,100.00
2022-10-17T15:26:38.044Z,100.00
2022-10-17T15:29:05.596Z,100.00
2022-10-17T15:31:33.200Z,100.00
2022-10-17T15:34:00.568Z,100.00
2022-10-17T15:36:29.143Z,100.00
2022-10-17T15:38:57.024Z,100.00
2022-10-17T15:41:26.318Z,100.00
2022-10-17T15:43:53.643Z,100.00
2022-10-17T15:46:22.630Z,100.00
2022-10-17T15:48:50.003Z,100.00
2022-10-17T15:51:17.403Z,100.00
2022-10-17T15:53:44.839Z,100.00
2022-10-17T15:56:16.600Z,100.00
2022-10-17T15:58:45.415Z,100.00
2022-10-17T16:01:12.924Z,100.00
2022-10-17T16:03:40.333Z,100.00
2022-10-17T16:06:10.757Z,100.00
2022-10-17T16:08:41.329Z,100.00
2022-10-17T16:11:10.263Z,100.00
2022-10-17T16:13:41.395Z,100.00
2022-10-17T16:16:11.489Z,99.34
2022-10-17T16:18:38.900Z,100.00
2022-10-17T16:21:06.463Z,100.00
2022-10-17T16:23:33.783Z,100.00
2022-10-17T16:26:01.272Z,100.00
2022-10-17T16:28:28.675Z,100.00
2022-10-17T16:30:56.061Z,100.00
2022-10-17T16:33:24.739Z,100.00
2022-10-17T16:35:52.300Z,100.00
2022-10-17T16:38:19.663Z,100.00
2022-10-17T16:40:47.059Z,100.00
2022-10-17T16:43:14.594Z,100.00
2022-10-17T16:45:41.968Z,100.00
2022-10-17T16:48:09.546Z,100.00
2022-10-17T16:50:40.803Z,100.00
2022-10-17T16:53:08.167Z,100.00
2022-10-17T16:55:35.816Z,100.00
2022-10-17T16:58:03.175Z,100.00
2022-10-17T17:00:30.692Z,100.00
2022-10-17T17:02:58.126Z,100.00
2022-10-17T17:05:25.466Z,100.00
2022-10-17T17:07:55.718Z,100.00
2022-10-17T17:10:23.115Z,100.00
2022-10-17T17:12:50.514Z,100.00
2022-10-17T17:15:17.917Z,100.00
2022-10-17T17:17:50.567Z,100.00
2022-10-17T17:20:19.729Z,100.00
2022-10-17T17:22:47.092Z,100.00
2022-10-17T17:25:15.808Z,100.00
2022-10-17T17:27:43.167Z,100.00
2022-10-17T17:30:10.968Z,100.00
2022-10-17T17:32:38.329Z,100.00
2022-10-17T17:35:05.997Z,100.00
2022-10-17T17:37:33.515Z,100.00
2022-10-17T17:40:01.004Z,100.00
2022-10-17T17:42:29.710Z,100.00
2022-10-17T17:44:57.078Z,100.00
2022-10-17T17:47:24.414Z,100.00
2022-10-17T17:49:51.767Z,100.00
2022-10-17T17:52:19.170Z,100.00
2022-10-17T17:54:46.521Z,100.00
2022-10-17T17:57:13.877Z,100.00
2022-10-17T17:59:42.561Z,100.00
2022-10-17T18:02:10.576Z,100.00
2022-10-17T18:04:38.084Z,100.00
2022-10-17T18:07:05.442Z,100.00
2022-10-17T18:09:32.937Z,100.00
2022-10-17T18:14:49.813Z,100.00
2022-10-17T18:17:17.251Z,100.00
2022-10-17T18:19:44.663Z,100.00
2022-10-17T18:22:12.113Z,100.00
2022-10-17T18:24:39.495Z,100.00
2022-10-17T18:27:06.832Z,100.00
2022-10-17T18:29:34.365Z,100.00
2022-10-17T18:32:03.054Z,100.00
2022-10-17T18:34:30.382Z,100.00
2022-10-17T18:36:58.905Z,100.00
2022-10-17T18:39:26.287Z,100.00
2022-10-17T18:41:53.784Z,100.00
2022-10-17T18:44:21.211Z,100.00
2022-10-17T18:46:48.710Z,100.00
2022-10-17T18:49:19.305Z,100.00
2022-10-17T18:51:46.675Z,100.00
2022-10-17T18:54:16.647Z,100.00
2022-10-17T18:56:44.922Z,100.00
2022-10-17T18:59:12.267Z,100.00
2022-10-17T19:01:39.790Z,100.00
2022-10-17T19:04:07.162Z,100.00
2022-10-17T19:06:35.904Z,100.00
2022-10-17T19:09:04.562Z,100.00
2022-10-17T19:11:32.329Z,100.00
2022-10-17T19:14:00.273Z,100.00
2022-10-17T19:16:28.379Z,100.00
2022-10-17T19:18:56.414Z,100.00
2022-10-17T19:21:23.791Z,100.00
2022-10-17T19:23:53.451Z,100.00
2022-10-17T19:26:21.152Z,100.00
2022-10-17T19:28:48.798Z,100.00
2022-10-17T19:31:17.947Z,100.00
2022-10-17T19:33:45.895Z,100.00
2022-10-17T19:36:13.760Z,100.00
2022-10-17T19:38:41.168Z,100.00
2022-10-17T19:41:10.556Z,100.00
2022-10-17T19:43:38.214Z,100.00
2022-10-17T19:46:06.270Z,100.00
2022-10-17T19:48:33.998Z,100.00
2022-10-17T19:51:01.366Z,100.00
2022-10-17T19:53:29.454Z,100.00
2022-10-17T19:55:56.922Z,100.00
2022-10-17T19:58:25.796Z,100.00
2022-10-17T20:00:54.372Z,100.00
2022-10-17T20:03:21.886Z,100.00
2022-10-17T20:05:49.239Z,100.00
2022-10-17T20:08:16.802Z,100.00
2022-10-17T20:10:44.342Z,100.00
2022-10-17T20:13:11.716Z,100.00
2022-10-17T20:15:40.846Z,100.00
2022-10-17T20:18:09.222Z,100.00
2022-10-17T20:20:37.583Z,100.00
2022-10-17T20:23:05.697Z,100.00
2022-10-17T20:25:34.451Z,100.00
2022-10-17T20:28:01.986Z,100.00
2022-10-17T20:30:29.572Z,100.00
2022-10-17T20:32:58.438Z,100.00
2022-10-17T20:35:26.017Z,100.00
2022-10-17T20:37:53.785Z,100.00
2022-10-17T20:40:34.639Z,100.00
2022-10-17T20:43:03.251Z,100.00
2022-10-17T20:45:44.237Z,100.00
2022-10-17T20:48:20.209Z,100.00
2022-10-17T20:50:47.749Z,100.00
2022-10-17T20:53:35.959Z,100.00
2022-10-17T20:56:06.960Z,100.00
2022-10-17T20:58:34.512Z,100.00
2022-10-17T21:01:07.086Z,100.00
2022-10-17T21:03:39.806Z,100.00
2022-10-17T21:06:10.633Z,100.00
2022-10-17T21:08:38.185Z,100.00
2022-10-17T21:11:13.442Z,100.00
2022-10-17T21:13:41.651Z,100.00
2022-10-17T21:16:10.850Z,100.00
2022-10-17T21:18:39.916Z,100.00
2022-10-17T21:21:11.841Z,100.00
2022-10-17T21:23:39.984Z,100.00
2022-10-17T21:26:09.407Z,100.00
2022-10-17T21:28:37.646Z,100.00
2022-10-17T21:31:13.463Z,100.00
2022-10-17T21:33:43.954Z,100.00
2022-10-17T21:36:13.405Z,100.00
2022-10-17T21:38:41.615Z,100.00
2022-10-17T21:41:10.309Z,100.00
2022-10-17T21:43:38.442Z,100.00
2022-10-17T21:46:07.721Z,100.00
2022-10-17T21:48:35.258Z,100.00
2022-10-17T21:51:06.143Z,100.00
2022-10-17T21:53:34.446Z,100.00
2022-10-17T21:56:02.864Z,100.00
2022-10-17T21:58:30.959Z,100.00
2022-10-17T22:01:05.813Z,100.00
2022-10-17T22:03:34.860Z,100.00
2022-10-17T22:06:12.837Z,100.00
2022-10-17T22:08:51.873Z,100.00
2022-10-17T22:11:21.531Z,100.00
2022-10-17T22:13:49.177Z,100.00
2022-10-17T22:16:17.596Z,100.00
2022-10-17T22:18:45.111Z,100.00
2022-10-17T22:21:15.524Z,100.00
2022-10-17T22:23:43.555Z,100.00
2022-10-17T22:26:11.451Z,100.00
2022-10-17T22:28:39.647Z,100.00
2022-10-17T22:31:07.228Z,100.00
2022-10-17T22:33:35.403Z,100.00
2022-10-17T22:36:03.520Z,100.00
2022-10-17T22:38:32.431Z,100.00
2022-10-17T22:40:59.981Z,100.00
2022-10-17T22:43:27.891Z,100.00
2022-10-17T22:45:56.302Z,100.00
2022-10-17T22:48:24.436Z,100.00
2022-10-17T22:50:52.813Z,100.00
2022-10-17T22:53:24.620Z,100.00
2022-10-17T22:55:54.534Z,100.00
2022-10-17T22:58:22.677Z,100.00
2022-10-17T23:00:50.513Z,100.00
2022-10-17T23:03:18.726Z,100.00
2022-10-17T23:05:46.286Z,100.00
2022-10-17T23:08:14.678Z,100.00
2022-10-17T23:10:42.900Z,100.00
2022-10-17T23:13:11.900Z,100.00
2022-10-17T23:15:39.495Z,100.00
2022-10-17T23:18:07.608Z,100.00
2022-10-17T23:20:35.137Z,100.00
2022-10-17T23:23:02.653Z,100.00
2022-10-17T23:25:30.309Z,100.00
2022-10-17T23:27:57.832Z,100.00
2022-10-17T23:30:27.135Z,100.00
2022-10-17T23:32:54.787Z,100.00
2022-10-17T23:35:22.324Z,100.00
2022-10-17T23:37:49.806Z,100.00
2022-10-17T23:40:17.519Z,100.00
2022-10-17T23:42:45.014Z,100.00
2022-10-17T23:45:12.826Z,100.00
2022-10-17T23:47:41.701Z,100.00
2022-10-17T23:50:09.341Z,100.00
2022-10-17T23:52:36.851Z,100.00
2022-10-17T23:55:04.835Z,100.00
2022-10-17T23:57:32.763Z,100.00
